createdAt,value
2023-05-14T00:01:43.908Z,102107.91
2023-05-14T00:04:13.296Z,102107.06
2023-05-14T00:06:41.246Z,102106.19
2023-05-14T00:09:09.197Z,102103.56
2023-05-14T00:11:37.281Z,102104.47
2023-05-14T00:14:05.300Z,102104.50
2023-05-14T00:16:33.229Z,102098.31
2023-05-14T00:19:01.228Z,102094.81
2023-05-14T00:21:31.673Z,102098.38
2023-05-14T00:23:59.575Z,102090.44
2023-05-14T00:26:27.477Z,102094.84
2023-05-14T00:28:55.397Z,102096.56
2023-05-14T00:31:23.390Z,102092.19
2023-05-14T00:33:51.439Z,102089.56
2023-05-14T00:36:19.398Z,102085.22
2023-05-14T00:38:48.721Z,102084.34
2023-05-14T00:41:16.584Z,102083.47
2023-05-14T00:43:44.569Z,102082.59
2023-05-14T00:46:12.549Z,102081.72
2023-05-14T00:48:40.567Z,102081.72
2023-05-14T00:51:08.566Z,102071.22
2023-05-14T00:53:36.567Z,102073.88
2023-05-14T00:56:07.009Z,102073.88
2023-05-14T00:58:34.965Z,102073.91
2023-05-14T01:01:03.267Z,102074.81
2023-05-14T01:03:31.575Z,102071.28
2023-05-14T01:06:02.265Z,102068.69
2023-05-14T01:08:34.139Z,102075.69
2023-05-14T01:11:08.221Z,102076.56
2023-05-14T01:13:41.280Z,102080.94
2023-05-14T01:16:09.701Z,102080.97
2023-05-14T01:18:37.688Z,102073.09
2023-05-14T01:21:06.403Z,102075.78
2023-05-14T01:23:35.715Z,102077.50
2023-05-14T01:26:03.686Z,102076.63
2023-05-14T01:28:33.846Z,102071.44
2023-05-14T01:31:03.715Z,102070.56
2023-05-14T01:33:31.652Z,102060.91
2023-05-14T01:35:59.568Z,102065.31
2023-05-14T01:38:27.717Z,102063.56
2023-05-14T01:40:56.989Z,102067.13
2023-05-14T01:43:25.079Z,102062.78
2023-05-14T01:45:55.349Z,102061.88
2023-05-14T01:48:23.531Z,102060.16
2023-05-14T01:50:51.531Z,102061.06
2023-05-14T01:53:19.565Z,102054.91
2023-05-14T01:55:47.455Z,102055.81
2023-05-14T01:58:16.825Z,102055.81
2023-05-14T02:00:44.771Z,102048.81
2023-05-14T02:03:12.820Z,102050.59
2023-05-14T02:05:40.824Z,102040.06
2023-05-14T02:08:08.747Z,102040.06
2023-05-14T02:10:36.648Z,102041.88
2023-05-14T02:13:04.615Z,102041.00
2023-05-14T02:15:33.917Z,102040.16
2023-05-14T02:18:01.895Z,102039.28
2023-05-14T02:20:29.870Z,102034.03
2023-05-14T02:22:57.770Z,102044.53
2023-05-14T02:25:25.956Z,102046.34
2023-05-14T02:27:53.918Z,102036.69
2023-05-14T02:30:22.922Z,102045.50
2023-05-14T02:32:52.523Z,102043.78
2023-05-14T02:35:20.451Z,102040.25
2023-05-14T02:37:48.436Z,102050.84
2023-05-14T02:40:16.442Z,102042.06
2023-05-14T02:42:44.997Z,102037.69
2023-05-14T02:45:13.063Z,102037.69
2023-05-14T02:47:41.025Z,102035.13
2023-05-14T02:50:11.369Z,102039.47
2023-05-14T02:52:39.317Z,102036.84
2023-05-14T02:55:08.141Z,102030.75
2023-05-14T02:57:36.076Z,102021.09
2023-05-14T03:00:04.619Z,102033.41
2023-05-14T03:02:33.328Z,102035.22
2023-05-14T03:05:01.640Z,102033.44
2023-05-14T03:07:31.026Z,102029.06
2023-05-14T03:10:00.387Z,102029.09
2023-05-14T03:12:28.419Z,102029.13
2023-05-14T03:14:56.350Z,102032.63
2023-05-14T03:17:24.347Z,102025.63
2023-05-14T03:19:52.292Z,102027.38
2023-05-14T03:22:20.224Z,102019.50
2023-05-14T03:24:50.048Z,102031.84
2023-05-14T03:27:18.023Z,102030.06
2023-05-14T03:29:45.954Z,102022.22
2023-05-14T03:32:13.900Z,102021.31
2023-05-14T03:34:41.956Z,102014.34
2023-05-14T03:37:09.864Z,102009.97
2023-05-14T03:39:37.957Z,102018.75
2023-05-14T03:42:07.892Z,102017.88
2023-05-14T03:44:35.796Z,102009.97
2023-05-14T03:47:03.837Z,102005.56
2023-05-14T03:49:31.757Z,102001.16
2023-05-14T03:51:59.751Z,102007.34
2023-05-14T03:54:27.746Z,102004.72
2023-05-14T03:56:55.773Z,102001.19
2023-05-14T03:59:25.267Z,102011.75
2023-05-14T04:01:53.203Z,102008.22
2023-05-14T04:04:21.145Z,102010.00
2023-05-14T04:06:49.137Z,102017.03
2023-05-14T04:09:17.129Z,102015.28
2023-05-14T04:11:45.072Z,102017.94
2023-05-14T04:14:12.996Z,102014.41
2023-05-14T04:16:42.495Z,102019.66
2023-05-14T04:19:10.566Z,102018.75
2023-05-14T04:21:38.926Z,102015.25
2023-05-14T04:24:07.525Z,102022.25
2023-05-14T04:26:35.464Z,102019.59
2023-05-14T04:29:03.460Z,102018.72
2023-05-14T04:31:31.748Z,102015.16
2023-05-14T04:34:01.123Z,102024.88
2023-05-14T04:36:29.155Z,102024.88
2023-05-14T04:38:57.178Z,102031.00
2023-05-14T04:41:25.063Z,102023.09
2023-05-14T04:43:52.968Z,102032.75
2023-05-14T04:46:20.931Z,102027.47
2023-05-14T04:48:48.984Z,102032.75
2023-05-14T04:51:18.604Z,102016.94
2023-05-14T04:53:46.525Z,102023.06
2023-05-14T04:56:14.443Z,102015.13
2023-05-14T04:58:42.484Z,102020.38
2023-05-14T05:01:10.690Z,102012.44
2023-05-14T05:03:38.706Z,102020.28
2023-05-14T05:06:07.116Z,102025.56
2023-05-14T05:08:37.446Z,102015.00
2023-05-14T05:11:05.866Z,102021.13
2023-05-14T05:13:33.748Z,102029.03
2023-05-14T05:16:01.739Z,102027.25
2023-05-14T05:18:29.715Z,102035.16
2023-05-14T05:20:57.757Z,102028.09
2023-05-14T05:23:25.698Z,102025.44
2023-05-14T05:25:55.343Z,102031.53
2023-05-14T05:28:23.303Z,102034.16
2023-05-14T05:30:51.276Z,102029.78
2023-05-14T05:33:19.861Z,102031.50
2023-05-14T05:35:48.304Z,102031.50
2023-05-14T05:38:18.259Z,102033.19
2023-05-14T05:40:46.194Z,102038.44
2023-05-14T05:43:16.134Z,102036.69
2023-05-14T05:45:44.060Z,102041.09
2023-05-14T05:48:12.012Z,102039.31
2023-05-14T05:50:39.923Z,102033.19
2023-05-14T05:53:07.840Z,102033.16
2023-05-14T05:55:35.829Z,102034.00
2023-05-14T05:58:03.789Z,102032.22
2023-05-14T06:00:33.419Z,102035.69
2023-05-14T06:03:01.527Z,102032.16
2023-05-14T06:05:29.537Z,102033.03
2023-05-14T06:07:57.518Z,102030.34
2023-05-14T06:10:25.647Z,102033.81
2023-05-14T06:12:53.713Z,102033.78
2023-05-14T06:15:22.223Z,102039.03
2023-05-14T06:17:51.538Z,102038.13
2023-05-14T06:20:19.724Z,102038.09
2023-05-14T06:22:47.665Z,102036.31
2023-05-14T06:25:15.690Z,102041.59
2023-05-14T06:27:43.784Z,102035.44
2023-05-14T06:30:13.048Z,102037.16
2023-05-14T06:32:40.992Z,102039.75
2023-05-14T06:35:11.119Z,102041.50
2023-05-14T06:37:39.058Z,102051.16
2023-05-14T06:40:08.380Z,102045.88
2023-05-14T06:42:36.319Z,102045.88
2023-05-14T06:45:04.366Z,102040.59
2023-05-14T06:47:32.430Z,102038.81
2023-05-14T06:50:01.958Z,102041.47
2023-05-14T06:52:31.331Z,102036.09
2023-05-14T06:54:59.241Z,102041.34
2023-05-14T06:57:27.315Z,102036.91
2023-05-14T06:59:55.398Z,102040.41
2023-05-14T07:02:23.413Z,102031.63
2023-05-14T07:04:51.366Z,102036.00
2023-05-14T07:07:21.192Z,102034.28
2023-05-14T07:09:51.061Z,102032.47
2023-05-14T07:12:19.086Z,102034.19
2023-05-14T07:14:47.091Z,102039.47
2023-05-14T07:17:15.119Z,102035.97
2023-05-14T07:19:43.371Z,102036.78
2023-05-14T07:22:11.447Z,102032.38
2023-05-14T07:24:39.537Z,102031.47
2023-05-14T07:27:09.091Z,102034.97
2023-05-14T07:29:37.020Z,102033.19
2023-05-14T07:32:05.356Z,102032.25
2023-05-14T07:34:33.420Z,102033.13
2023-05-14T07:37:01.357Z,102028.72
2023-05-14T07:39:29.317Z,102032.16
2023-05-14T07:41:57.248Z,102023.28
2023-05-14T07:44:26.575Z,102027.69
2023-05-14T07:46:54.626Z,102024.09
2023-05-14T07:49:22.553Z,102023.22
2023-05-14T07:51:50.462Z,102018.72
2023-05-14T07:54:18.676Z,102018.72
2023-05-14T07:56:46.612Z,102012.50
2023-05-14T07:59:14.562Z,102018.66
2023-05-14T08:01:44.297Z,102013.34
2023-05-14T08:04:12.707Z,102009.78
2023-05-14T08:06:40.650Z,102007.13
2023-05-14T08:09:08.786Z,101999.19
2023-05-14T08:11:36.700Z,102005.41
2023-05-14T08:14:04.691Z,102001.84
2023-05-14T08:16:32.798Z,102002.69
2023-05-14T08:19:02.272Z,101997.47
2023-05-14T08:21:30.303Z,101995.69
2023-05-14T08:23:58.265Z,102000.97
2023-05-14T08:26:26.492Z,101997.38
2023-05-14T08:28:54.782Z,102002.63
2023-05-14T08:31:22.760Z,101998.22
2023-05-14T08:33:50.793Z,101995.56
2023-05-14T08:36:20.090Z,101997.31
2023-05-14T08:38:48.579Z,101989.34
2023-05-14T08:41:16.570Z,101987.50
2023-05-14T08:43:46.895Z,101993.56
2023-05-14T08:46:15.458Z,101986.47
2023-05-14T08:48:43.883Z,101989.03
2023-05-14T08:51:11.912Z,101992.41
2023-05-14T08:53:41.494Z,101988.00
2023-05-14T08:56:09.495Z,101985.31
2023-05-14T08:58:37.434Z,101983.59
2023-05-14T09:01:05.737Z,101978.31
2023-05-14T09:03:33.922Z,101983.53
2023-05-14T09:06:01.827Z,101980.00
2023-05-14T09:08:29.831Z,101972.91
2023-05-14T09:10:59.156Z,101967.63
2023-05-14T09:13:28.306Z,101977.22
2023-05-14T09:15:56.386Z,101978.09
2023-05-14T09:18:24.394Z,101975.38
2023-05-14T09:20:53.187Z,101975.31
2023-05-14T09:23:21.158Z,101967.38
2023-05-14T09:25:49.778Z,101968.16
2023-05-14T09:28:21.270Z,101962.81
2023-05-14T09:30:51.694Z,101956.59
2023-05-14T09:33:27.355Z,101953.94
2023-05-14T09:35:59.200Z,101957.38
2023-05-14T09:38:30.595Z,101952.97
2023-05-14T09:40:58.545Z,101951.22
2023-05-14T09:43:27.931Z,101952.03
2023-05-14T09:45:56.014Z,101944.06
2023-05-14T09:48:24.472Z,101944.03
2023-05-14T09:50:52.768Z,101952.81
2023-05-14T09:53:20.679Z,101944.00
2023-05-14T09:55:49.334Z,101949.25
2023-05-14T09:58:17.274Z,101947.44
2023-05-14T10:00:47.785Z,101944.78
2023-05-14T10:03:19.635Z,101938.59
2023-05-14T10:05:47.909Z,101938.50
2023-05-14T10:08:17.083Z,101927.91
2023-05-14T10:10:45.027Z,101938.38
2023-05-14T10:13:14.472Z,101929.53
2023-05-14T10:15:45.143Z,101925.94
2023-05-14T10:18:19.119Z,101925.00
2023-05-14T10:20:48.751Z,101926.69
2023-05-14T10:23:16.666Z,101917.81
2023-05-14T10:25:44.583Z,101910.69
2023-05-14T10:28:12.763Z,101912.44
2023-05-14T10:30:45.058Z,101902.72
2023-05-14T10:33:15.497Z,101908.00
2023-05-14T10:36:02.018Z,101900.94
2023-05-14T10:38:30.551Z,101900.03
2023-05-14T10:41:02.457Z,101903.47
2023-05-14T10:43:31.201Z,101901.75
2023-05-14T10:45:59.570Z,101892.03
2023-05-14T10:48:28.998Z,101891.91
2023-05-14T10:50:57.788Z,101887.47
2023-05-14T10:53:33.389Z,101883.91
2023-05-14T10:56:04.592Z,101879.47
2023-05-14T10:58:33.857Z,101877.63
2023-05-14T11:01:01.957Z,101881.13
2023-05-14T11:03:32.747Z,101879.28
2023-05-14T11:06:01.531Z,101873.94
2023-05-14T11:08:29.544Z,101873.00
2023-05-14T11:10:57.533Z,101870.31
2023-05-14T11:13:25.656Z,101865.78
2023-05-14T11:15:53.571Z,101864.81
2023-05-14T11:18:28.756Z,101856.81
2023-05-14T11:21:00.932Z,101844.38
2023-05-14T11:23:28.944Z,101846.06
2023-05-14T11:25:58.094Z,101843.38
2023-05-14T11:28:26.831Z,101845.06
2023-05-14T11:30:55.159Z,101835.31
2023-05-14T11:33:23.136Z,101834.41
2023-05-14T11:35:52.029Z,101822.03
2023-05-14T11:38:21.706Z,101826.44
2023-05-14T11:40:54.041Z,101822.88
2023-05-14T11:43:23.749Z,101821.03
2023-05-14T11:45:52.557Z,101819.25
2023-05-14T11:48:20.651Z,101814.75
2023-05-14T11:50:48.936Z,101813.84
2023-05-14T11:53:21.351Z,101805.81
2023-05-14T11:55:49.410Z,101800.44
2023-05-14T11:58:18.893Z,101800.44
2023-05-14T12:00:47.414Z,101797.84
2023-05-14T12:03:15.797Z,101794.19
2023-05-14T12:05:56.551Z,101798.44
2023-05-14T12:08:27.694Z,101799.19
2023-05-14T12:10:55.892Z,101793.81
2023-05-14T12:13:23.855Z,101796.41
2023-05-14T12:15:56.115Z,101794.69
2023-05-14T12:18:25.570Z,101797.41
2023-05-14T12:20:53.518Z,101786.66
2023-05-14T12:23:27.810Z,101794.56
2023-05-14T12:25:55.721Z,101797.25
2023-05-14T12:28:24.300Z,101789.31
2023-05-14T12:30:57.418Z,101789.38
2023-05-14T12:33:26.596Z,101788.47
2023-05-14T12:35:58.892Z,101791.88
2023-05-14T12:38:29.978Z,101790.06
2023-05-14T12:40:57.990Z,101788.97
2023-05-14T12:43:31.506Z,101780.06
2023-05-14T12:45:59.398Z,101780.91
2023-05-14T12:48:27.501Z,101771.03
2023-05-14T12:50:58.242Z,101772.69
2023-05-14T12:53:26.394Z,101772.59
2023-05-14T12:55:56.278Z,101765.41
2023-05-14T12:58:24.273Z,101752.09
2023-05-14T13:00:52.420Z,101754.84
2023-05-14T13:03:20.871Z,101752.19
2023-05-14T13:05:49.090Z,101749.41
2023-05-14T13:08:17.902Z,101749.28
2023-05-14T13:10:46.054Z,101748.38
2023-05-14T13:13:16.317Z,101741.28
2023-05-14T13:15:46.793Z,101743.09
2023-05-14T13:18:14.810Z,101744.06
2023-05-14T13:20:43.326Z,101744.06
2023-05-14T13:23:11.353Z,101736.91
2023-05-14T13:25:39.262Z,101725.44
2023-05-14T13:28:07.260Z,101725.53
2023-05-14T13:30:36.581Z,101728.97
2023-05-14T13:33:04.834Z,101729.66
2023-05-14T13:35:32.775Z,101726.00
2023-05-14T13:38:00.684Z,101724.00
2023-05-14T13:40:28.688Z,101719.44
2023-05-14T13:42:56.668Z,101721.06
2023-05-14T13:45:24.815Z,101715.66
2023-05-14T13:47:56.641Z,101712.16
2023-05-14T13:50:24.710Z,101698.78
2023-05-14T13:52:52.681Z,101707.56
2023-05-14T13:55:20.618Z,101701.28
2023-05-14T13:57:48.588Z,101701.28
2023-05-14T14:00:17.294Z,101696.97
2023-05-14T14:02:45.247Z,101692.41
2023-05-14T14:05:14.763Z,101695.88
2023-05-14T14:07:42.724Z,101688.72
2023-05-14T14:10:11.519Z,101688.56
2023-05-14T14:12:39.527Z,101677.00
2023-05-14T14:15:08.709Z,101683.81
2023-05-14T14:17:36.868Z,101674.66
2023-05-14T14:20:06.169Z,101674.25
2023-05-14T14:22:35.657Z,101673.09
2023-05-14T14:25:03.705Z,101671.25
2023-05-14T14:27:34.033Z,101672.38
2023-05-14T14:30:01.949Z,101668.13
2023-05-14T14:32:30.845Z,101663.16
2023-05-14T14:34:58.799Z,101665.69
2023-05-14T14:37:26.772Z,101668.03
2023-05-14T14:39:56.062Z,101659.66
2023-05-14T14:42:24.205Z,101659.78
2023-05-14T14:44:52.197Z,101663.25
2023-05-14T14:47:20.145Z,101661.19
2023-05-14T14:49:48.049Z,101664.03
2023-05-14T14:52:16.024Z,101663.66
2023-05-14T14:54:43.890Z,101669.56
2023-05-14T14:57:13.214Z,101665.31
2023-05-14T14:59:41.428Z,101656.75
2023-05-14T15:02:09.878Z,101652.09
2023-05-14T15:04:38.826Z,101657.53
2023-05-14T15:07:07.078Z,101655.09
2023-05-14T15:09:35.078Z,101654.34
2023-05-14T15:12:03.090Z,101650.66
2023-05-14T15:14:32.356Z,101651.25
2023-05-14T15:17:00.390Z,101654.22
2023-05-14T15:19:28.346Z,101650.69
2023-05-14T15:21:56.336Z,101649.38
2023-05-14T15:24:25.281Z,101652.69
2023-05-14T15:26:53.726Z,101647.84
2023-05-14T15:29:22.417Z,101643.41
2023-05-14T15:31:51.798Z,101643.81
2023-05-14T15:34:19.753Z,101634.59
2023-05-14T15:36:48.220Z,101637.53
2023-05-14T15:39:16.136Z,101634.09
2023-05-14T15:41:44.079Z,101627.97
2023-05-14T15:44:12.037Z,101633.78
2023-05-14T15:46:39.975Z,101622.06
2023-05-14T15:49:09.329Z,101624.16
2023-05-14T15:51:37.234Z,101617.31
2023-05-14T15:54:05.152Z,101620.06
2023-05-14T15:56:33.110Z,101614.88
2023-05-14T15:59:01.014Z,101608.78
2023-05-14T16:01:28.932Z,101614.88
2023-05-14T16:03:56.989Z,101612.94
2023-05-14T16:06:26.650Z,101615.50
2023-05-14T16:08:54.687Z,101608.53
2023-05-14T16:11:22.654Z,101605.63
2023-05-14T16:13:50.576Z,101611.06
2023-05-14T16:16:19.634Z,101611.19
2023-05-14T16:18:47.724Z,101605.22
2023-05-14T16:21:15.790Z,101604.41
2023-05-14T16:23:45.073Z,101613.38
2023-05-14T16:26:13.067Z,101601.91
2023-05-14T16:28:42.745Z,101596.66
2023-05-14T16:31:10.811Z,101602.91
2023-05-14T16:33:38.743Z,101604.78
2023-05-14T16:36:07.173Z,101603.00
2023-05-14T16:38:38.533Z,101602.16
2023-05-14T16:41:10.743Z,101603.09
2023-05-14T16:43:38.653Z,101595.06
2023-05-14T16:46:06.921Z,101600.31
2023-05-14T16:48:34.925Z,101598.41
2023-05-14T16:51:02.856Z,101593.88
2023-05-14T16:53:30.954Z,101596.53
2023-05-14T16:55:59.012Z,101598.41
2023-05-14T16:58:28.470Z,101586.00
2023-05-14T17:00:56.551Z,101586.84
2023-05-14T17:03:24.501Z,101592.16
2023-05-14T17:05:52.714Z,101593.00
2023-05-14T17:08:21.073Z,101588.50
2023-05-14T17:10:49.023Z,101592.88
2023-05-14T17:13:17.143Z,101584.91
2023-05-14T17:15:46.544Z,101586.63
2023-05-14T17:18:14.539Z,101590.22
2023-05-14T17:20:42.506Z,101585.84
2023-05-14T17:23:10.639Z,101593.88
2023-05-14T17:25:38.603Z,101588.59
2023-05-14T17:28:06.680Z,101586.88
2023-05-14T17:30:34.775Z,101577.97
2023-05-14T17:33:04.308Z,101581.56
2023-05-14T17:35:35.789Z,101582.41
2023-05-14T17:38:03.771Z,101586.78
2023-05-14T17:40:31.733Z,101588.34
2023-05-14T17:42:59.586Z,101590.09
2023-05-14T17:45:28.605Z,101590.09
2023-05-14T17:47:58.658Z,101583.13
2023-05-14T17:50:28.066Z,101583.25
2023-05-14T17:52:56.810Z,101585.16
2023-05-14T17:55:25.080Z,101586.19
2023-05-14T17:57:53.244Z,101585.53
2023-05-14T18:00:21.394Z,101588.34
2023-05-14T18:02:49.442Z,101592.94
2023-05-14T18:05:19.936Z,101583.41
2023-05-14T18:07:49.977Z,101586.25
2023-05-14T18:10:18.042Z,101578.50
2023-05-14T18:12:45.982Z,101587.44
2023-05-14T18:15:13.937Z,101590.19
2023-05-14T18:17:42.149Z,101591.25
2023-05-14T18:20:11.023Z,101591.34
2023-05-14T18:22:39.082Z,101591.50
2023-05-14T18:25:09.612Z,101596.91
2023-05-14T18:27:44.076Z,101590.81
2023-05-14T18:30:14.668Z,101598.88
2023-05-14T18:32:43.595Z,101602.50
2023-05-14T18:35:11.735Z,101602.56
2023-05-14T18:37:39.731Z,101600.03
2023-05-14T18:40:15.622Z,101605.44
2023-05-14T18:42:44.920Z,101605.66
2023-05-14T18:45:13.055Z,101604.13
2023-05-14T18:47:41.427Z,101606.16
2023-05-14T18:50:10.089Z,101601.16
2023-05-14T18:52:38.205Z,101611.97
2023-05-14T18:55:07.013Z,101611.34
2023-05-14T18:57:36.842Z,101607.13
2023-05-14T19:00:05.244Z,101609.09
2023-05-14T19:02:33.354Z,101611.03
2023-05-14T19:05:01.328Z,101613.03
2023-05-14T19:07:30.429Z,101608.78
2023-05-14T19:09:58.396Z,101604.56
2023-05-14T19:12:26.754Z,101615.25
2023-05-14T19:14:56.078Z,101616.31
2023-05-14T19:17:24.044Z,101609.38
2023-05-14T19:19:52.236Z,101610.50
2023-05-14T19:22:20.184Z,101610.66
2023-05-14T19:27:17.425Z,101616.25
2023-05-14T19:29:45.358Z,101616.38
2023-05-14T19:32:14.712Z,101621.75
2023-05-14T19:34:42.640Z,101616.56
2023-05-14T19:37:10.684Z,101618.41
2023-05-14T19:39:38.689Z,101613.31
2023-05-14T19:42:07.265Z,101619.56
2023-05-14T19:44:44.520Z,101616.03
2023-05-14T19:47:12.475Z,101609.00
2023-05-14T19:49:42.174Z,101617.84
2023-05-14T19:52:11.921Z,101617.09
2023-05-14T19:54:39.864Z,101618.94
2023-05-14T19:57:08.097Z,101611.97
2023-05-14T19:59:36.093Z,101611.16
2023-05-14T20:02:04.755Z,101612.06
2023-05-14T20:04:33.187Z,101606.88
2023-05-14T20:07:02.462Z,101601.66
2023-05-14T20:09:30.311Z,101604.34
2023-05-14T20:11:58.346Z,101603.59
2023-05-14T20:14:29.260Z,101603.66
2023-05-14T20:16:58.136Z,101606.34
2023-05-14T20:19:26.688Z,101600.34
2023-05-14T20:21:56.241Z,101598.75
2023-05-14T20:24:25.595Z,101599.81
2023-05-14T20:26:53.513Z,101602.50
2023-05-14T20:29:21.434Z,101590.22
2023-05-14T20:31:49.350Z,101595.53
2023-05-14T20:34:17.273Z,101599.00
2023-05-14T20:36:45.183Z,101593.81
2023-05-14T20:39:13.163Z,101596.38
2023-05-14T20:41:42.496Z,101592.03
2023-05-14T20:44:10.636Z,101592.06
2023-05-14T20:46:41.397Z,101592.19
2023-05-14T20:49:09.345Z,101585.22
2023-05-14T20:51:37.307Z,101575.56
2023-05-14T20:54:05.532Z,101574.78
2023-05-14T20:56:33.478Z,101575.56
2023-05-14T20:59:02.849Z,101573.84
2023-05-14T21:03:58.943Z,101573.91
2023-05-14T21:06:27.007Z,101574.84
2023-05-14T21:08:55.095Z,101574.97
2023-05-14T21:11:23.097Z,101580.34
2023-05-14T21:13:51.067Z,101578.63
2023-05-14T21:16:20.656Z,101573.41
2023-05-14T21:18:48.782Z,101578.75
2023-05-14T21:21:16.787Z,101578.75
2023-05-14T21:23:47.869Z,101577.94
2023-05-14T21:26:15.915Z,101575.34
2023-05-14T21:28:44.454Z,101572.75
2023-05-14T21:31:12.354Z,101571.97
2023-05-14T21:33:41.876Z,101572.03
2023-05-14T21:36:09.858Z,101570.34
2023-05-14T21:38:37.788Z,101571.38
2023-05-14T21:41:05.737Z,101563.63
2023-05-14T21:43:33.714Z,101559.25
2023-05-14T21:46:05.241Z,101558.50
2023-05-14T21:48:33.343Z,101554.16
2023-05-14T21:51:02.894Z,101550.72
2023-05-14T21:53:34.731Z,101543.81
2023-05-14T21:56:02.718Z,101547.31
2023-05-14T21:58:30.732Z,101539.41
2023-05-14T22:00:58.691Z,101542.97
2023-05-14T22:03:26.753Z,101528.97
2023-05-14T22:05:57.470Z,101538.69
2023-05-14T22:08:27.235Z,101535.25
2023-05-14T22:10:56.104Z,101535.28
2023-05-14T22:13:24.083Z,101531.78
2023-05-14T22:16:01.425Z,101524.03
2023-05-14T22:18:37.211Z,101534.66
2023-05-14T22:21:05.252Z,101531.22
2023-05-14T22:23:34.641Z,101531.22
2023-05-14T22:26:02.660Z,101525.09
2023-05-14T22:28:30.616Z,101519.94
2023-05-14T22:30:59.723Z,101522.63
2023-05-14T22:33:27.721Z,101523.56
2023-05-14T22:35:55.718Z,101516.59
2023-05-14T22:38:23.629Z,101517.47
2023-05-14T22:40:52.942Z,101511.41
2023-05-14T22:43:20.821Z,101512.34
2023-05-14T22:45:48.745Z,101515.91
2023-05-14T22:48:16.704Z,101509.78
2023-05-14T22:50:44.615Z,101505.44
2023-05-14T22:53:12.555Z,101500.19
2023-05-14T22:55:40.431Z,101493.19
2023-05-14T22:58:10.314Z,101489.75
2023-05-14T23:00:38.236Z,101487.19
2023-05-14T23:03:06.190Z,101484.56
2023-05-14T23:05:34.175Z,101489.03
2023-05-14T23:08:02.066Z,101486.47
2023-05-14T23:10:29.894Z,101482.94
2023-05-14T23:12:57.841Z,101475.06
2023-05-14T23:15:27.459Z,101478.63
2023-05-14T23:17:55.554Z,101469.84
2023-05-14T23:20:23.571Z,101471.66
2023-05-14T23:22:51.477Z,101462.06
2023-05-14T23:25:19.350Z,101461.22
2023-05-14T23:27:48.000Z,101460.41
2023-05-14T23:30:16.203Z,101449.94
2023-05-14T23:32:45.513Z,101456.94
2023-05-14T23:35:13.524Z,101454.38
2023-05-14T23:37:46.986Z,101448.28
2023-05-14T23:40:15.641Z,101442.22
2023-05-14T23:42:44.411Z,101449.28
2023-05-14T23:45:13.032Z,101443.13
2023-05-14T23:47:41.208Z,101439.66
2023-05-14T23:50:11.020Z,101432.66
2023-05-14T23:52:39.035Z,101439.72
2023-05-14T23:55:07.763Z,101437.09
2023-05-14T23:57:35.690Z,101431.91
